Time;durP1;ratioP1;P1;durP2;ratioP2;P2;SDS_P1;SDS_P2;PMS_P1;PMS_P2;Temp;Humidity;BMP_temperature;BMP_pressure;BME280_temperature;BME280_humidity;BME280_pressure;Samples;Min_cycle;Max_cycle;Signal;HPM_P1;HPM_P2
2022/03/28 00:00:32;;;;;;;;;;;;;;;9.21;44.62;100749.91;3144773;28;19974;-66
2022/03/28 00:02:04;;;;;;;;;;;;;;;9.15;44.69;100745.69;3147075;28;20371;-66
2022/03/28 00:03:35;;;;;;;;;;;;;;;9.13;44.90;100747.47;3145150;28;19952;-66
2022/03/28 00:05:08;;;;;;;;;;;;;;;9.11;44.22;100752.72;3147347;28;19932;-65
2022/03/28 00:06:41;;;;;;;;;;;;;;;9.11;44.13;100747.53;3145200;28;19932;-65
2022/03/28 00:08:12;;;;;;;;;;;;;;;9.11;44.04;100751.88;3145125;28;20343;-65
2022/03/28 00:09:44;;;;;;;;;;;;;;;9.08;45.06;100752.78;3151071;28;19924;-65
2022/03/28 00:11:16;;;;;;;;;;;;;;;9.05;45.09;100747.66;3145168;28;20039;-65
2022/03/28 00:12:48;;;;;;;;;;;;;;;9.03;44.82;100738.19;3149177;28;19924;-65
2022/03/28 00:14:19;;;;;;;;;;;;;;;9.03;45.31;100738.19;3144357;28;20434;-65
2022/03/28 00:15:51;;;;;;;;;;;;;;;8.98;44.96;100734.84;3149788;28;19947;-65
2022/03/28 00:17:23;;;;;;;;;;;;;;;8.97;44.86;100740.94;3145165;28;19986;-65
2022/03/28 00:18:54;;;;;;;;;;;;;;;8.97;44.76;100735.75;3146252;28;19978;-65
2022/03/28 00:20:26;;;;;;;;;;;;;;;8.98;44.68;100740.03;3144669;28;19931;-65
2022/03/28 00:22:00;;;;;;;;;;;;;;;8.95;44.92;100738.38;3145655;28;19929;-65
2022/03/28 00:23:32;;;;;;;;;;;;;;;8.92;45.67;100741.03;3145101;28;19964;-65
2022/03/28 00:25:04;;;;;;;;;;;;;;;8.86;45.88;100743.78;3145050;28;19936;-66
2022/03/28 00:26:35;;;;;;;;;;;;;;;8.82;46.12;100736.97;3146442;28;19940;-65
2022/03/28 00:28:07;;;;;;;;;;;;;;;8.80;45.46;100741.31;3144466;28;20309;-66
2022/03/28 00:29:39;;;;;;;;;;;;;;;8.77;46.07;100744.00;3146159;28;19924;-66
2022/03/28 00:31:10;;;;;;;;;;;;;;;8.76;45.89;100748.34;3144409;28;19928;-66
2022/03/28 00:32:42;;;;;;;;;;;;;;;8.72;45.92;100751.03;3145621;28;19924;-66
2022/03/28 00:34:15;;;;;;;;;;;;;;;8.71;45.96;100754.53;3145027;28;19924;-66
2022/03/28 00:35:46;;;;;;;;;;;;;;;8.69;46.08;100757.13;3147485;28;19989;-66
2022/03/28 00:37:19;;;;;;;;;;;;;;;8.67;46.51;100751.16;3147831;28;19982;-65
2022/03/28 00:38:51;;;;;;;;;;;;;;;8.65;45.91;100758.09;3146365;28;19924;-66
2022/03/28 00:40:23;;;;;;;;;;;;;;;8.63;46.18;100762.47;3145445;28;19943;-66
2022/03/28 00:41:54;;;;;;;;;;;;;;;8.63;45.87;100768.50;3144614;28;20019;-66
2022/03/28 00:43:27;;;;;;;;;;;;;;;8.65;45.79;100760.69;3145796;28;19990;-66
2022/03/28 00:44:58;;;;;;;;;;;;;;;8.63;46.63;100765.91;3144152;28;20011;-66
2022/03/28 00:46:32;;;;;;;;;;;;;;;8.58;47.47;100757.41;3146505;28;20033;-66
2022/03/28 00:48:04;;;;;;;;;;;;;;;8.51;47.73;100761.00;3144926;28;19936;-66
2022/03/28 00:49:36;;;;;;;;;;;;;;;8.48;47.80;100765.41;3147667;28;20404;-66
2022/03/28 00:51:07;;;;;;;;;;;;;;;8.45;47.67;100761.13;3144575;28;20408;-66
2022/03/28 00:52:40;;;;;;;;;;;;;;;8.45;47.96;100768.91;3146596;28;20247;-66
2022/03/28 00:54:12;;;;;;;;;;;;;;;8.41;49.04;100764.69;3144909;28;20023;-66
2022/03/28 00:55:46;;;;;;;;;;;;;;;8.36;48.83;100769.91;3144852;28;19924;-66
2022/03/28 00:57:18;;;;;;;;;;;;;;;8.31;49.05;100774.38;3144888;28;20509;-66
2022/03/28 00:58:50;;;;;;;;;;;;;;;8.28;48.81;100766.66;3144910;28;19928;-66
2022/03/28 01:00:22;;;;;;;;;;;;;;;8.26;48.80;100780.53;3150241;28;20295;-66
2022/03/28 01:01:53;;;;;;;;;;;;;;;8.23;48.85;100767.63;3144935;28;20019;-65
2022/03/28 01:03:25;;;;;;;;;;;;;;;8.18;49.20;100771.16;3149777;28;19993;-65
2022/03/28 01:04:56;;;;;;;;;;;;;;;8.15;49.12;100776.41;3144518;28;19925;-66
2022/03/28 01:06:27;;;;;;;;;;;;;;;8.11;49.32;100781.69;3147081;28;20078;-65
2022/03/28 01:08:00;;;;;;;;;;;;;;;8.07;49.25;100782.63;3139115;28;19924;-65
2022/03/28 01:09:32;;;;;;;;;;;;;;;8.04;49.57;100783.53;3144041;28;19990;-66
2022/03/28 01:11:05;;;;;;;;;;;;;;;8.02;49.68;100789.66;3143698;28;20421;-66
2022/03/28 01:12:37;;;;;;;;;;;;;;;7.94;49.86;100788.03;3144563;28;20274;-65
2022/03/28 01:14:08;;;;;;;;;;;;;;;7.93;49.75;100785.50;3144378;28;19924;-66
2022/03/28 01:15:40;;;;;;;;;;;;;;;7.91;50.27;100782.06;3144444;28;19928;-66
2022/03/28 01:19:01;;;;;;;;;;;;;;;7.81;50.51;100773.59;3141195;28;19963;-65
2022/03/28 01:20:34;;;;;;;;;;;;;;;7.79;50.64;100777.94;3146004;28;19947;-65
2022/03/28 01:22:07;;;;;;;;;;;;;;;7.66;51.13;100764.38;3144427;28;19932;-65
2022/03/28 01:23:39;;;;;;;;;;;;;;;7.73;50.97;100784.09;3145083;28;19929;-65
2022/03/28 01:25:09;;;;;;;;;;;;;;;7.71;51.37;100787.59;3142205;28;20031;-65
2022/03/28 01:26:41;;;;;;;;;;;;;;;7.67;51.81;100786.81;3150615;28;19931;-65
2022/03/28 01:28:13;;;;;;;;;;;;;;;7.64;51.47;100780.81;3148532;28;19925;-65
2022/03/28 01:29:43;;;;;;;;;;;;;;;7.62;51.27;100785.16;3147958;28;19932;-65
2022/03/28 01:31:15;;;;;;;;;;;;;;;7.60;51.70;100784.31;3147057;28;19928;-66
2022/03/28 01:32:46;;;;;;;;;;;;;;;7.55;52.04;100780.97;3146764;28;19924;-65
2022/03/28 01:34:18;;;;;;;;;;;;;;;7.52;52.11;100782.72;3148634;28;19924;-66
2022/03/28 01:35:52;;;;;;;;;;;;;;;7.50;51.96;100776.72;3148319;28;19932;-65
2022/03/28 01:37:24;;;;;;;;;;;;;;;7.50;51.87;100784.50;3149678;28;19936;-65
2022/03/28 01:38:55;;;;;;;;;;;;;;;7.48;52.24;100794.03;3146764;28;20340;-65
2022/03/28 01:40:27;;;;;;;;;;;;;;;7.46;52.20;100794.94;3149389;28;20367;-66
2022/03/28 01:41:58;;;;;;;;;;;;;;;7.42;52.45;100799.31;3146877;28;19928;-66
2022/03/28 01:43:30;;;;;;;;;;;;;;;7.38;52.55;100797.66;3148331;28;19928;-65
2022/03/28 01:45:01;;;;;;;;;;;;;;;7.38;52.43;100791.63;3146750;28;20452;-65
2022/03/28 01:46:32;;;;;;;;;;;;;;;7.36;52.77;100796.81;3147409;28;19924;-66
2022/03/28 01:48:04;;;;;;;;;;;;;;;7.33;53.00;100796.00;3140237;28;19925;-66
2022/03/28 01:49:36;;;;;;;;;;;;;;;7.29;53.13;100795.22;3146745;28;19928;-66
2022/03/28 01:51:07;;;;;;;;;;;;;;;7.28;53.35;100788.31;3152539;28;20329;-66
2022/03/28 01:52:39;;;;;;;;;;;;;;;7.25;53.39;100793.56;3146722;28;19929;-66
2022/03/28 01:54:11;;;;;;;;;;;;;;;7.22;53.72;100785.84;3151959;28;20007;-66
2022/03/28 01:55:43;;;;;;;;;;;;;;;7.17;53.86;100785.88;3146095;28;19932;-66
2022/03/28 01:57:13;;;;;;;;;;;;;;;7.17;54.02;100790.22;3150655;28;19985;-65
2022/03/28 01:58:45;;;;;;;;;;;;;;;7.14;54.24;100795.44;3146401;28;20430;-66
2022/03/28 02:00:18;;;;;;;;;;;;;;;7.12;54.29;100799.78;3152615;28;20352;-66
2022/03/28 02:01:49;;;;;;;;;;;;;;;7.09;54.54;100794.66;3147779;28;20259;-65
2022/03/28 02:03:21;;;;;;;;;;;;;;;7.05;54.58;100792.13;3144938;28;19989;-65
2022/03/28 02:04:52;;;;;;;;;;;;;;;7.03;54.79;100788.69;3148411;28;19928;-65
2022/03/28 02:06:23;;;;;;;;;;;;;;;7.01;54.95;100787.88;3146274;28;20266;-65
2022/03/28 02:07:56;;;;;;;;;;;;;;;6.99;55.42;100784.44;3146497;28;20244;-65
2022/03/28 02:09:27;;;;;;;;;;;;;;;6.97;55.38;100783.59;3146403;28;19940;-65
2022/03/28 02:10:59;;;;;;;;;;;;;;;6.94;55.78;100788.81;3147620;28;19924;-65
2022/03/28 02:12:30;;;;;;;;;;;;;;;6.95;55.82;100792.25;3146771;28;19932;-65
2022/03/28 02:14:02;;;;;;;;;;;;;;;6.92;56.01;100785.41;3149836;28;19924;-65
2022/03/28 02:15:34;;;;;;;;;;;;;;;6.90;56.32;100792.34;3149263;28;19982;-65
2022/03/28 02:17:05;;;;;;;;;;;;;;;6.90;56.23;100788.91;3147111;28;19981;-65
2022/03/28 02:18:38;;;;;;;;;;;;;;;6.90;56.54;100794.06;3150636;28;20322;-66
2022/03/28 02:20:09;;;;;;;;;;;;;;;6.88;56.93;100788.91;3146390;28;20023;-66
2022/03/28 02:21:41;;;;;;;;;;;;;;;6.86;57.22;100794.97;3151136;28;19935;-66
2022/03/28 02:23:14;;;;;;;;;;;;;;;6.83;57.01;100795.88;3146168;28;19928;-65
2022/03/28 02:24:45;;;;;;;;;;;;;;;6.82;57.55;100796.75;3149919;28;20338;-66
2022/03/28 02:26:17;;;;;;;;;;;;;;;6.80;57.33;100807.16;3146627;28;19924;-66
2022/03/28 02:27:49;;;;;;;;;;;;;;;6.79;57.44;100805.44;3148580;28;20001;-65
2022/03/28 02:29:19;;;;;;;;;;;;;;;6.78;57.57;100808.91;3146492;28;20326;-66
2022/03/28 02:30:51;;;;;;;;;;;;;;;6.76;57.79;100805.47;3148518;28;19949;-66
2022/03/28 02:32:22;;;;;;;;;;;;;;;6.74;58.05;100803.78;3146362;28;19924;-65
2022/03/28 02:33:54;;;;;;;;;;;;;;;6.75;58.39;100808.09;3143711;28;19928;-65
2022/03/28 02:35:26;;;;;;;;;;;;;;;6.72;58.32;100813.31;3147355;28;19928;-66
2022/03/28 02:36:57;;;;;;;;;;;;;;;6.69;58.87;100806.44;3145896;28;20417;-66
2022/03/28 02:38:30;;;;;;;;;;;;;;;6.67;58.71;100809.91;3146600;28;19929;-65
2022/03/28 02:40:01;;;;;;;;;;;;;;;6.64;59.08;100810.81;3146164;28;19980;-65
2022/03/28 02:41:33;;;;;;;;;;;;;;;6.60;59.41;100815.19;3151996;28;19947;-65
2022/03/28 02:43:05;;;;;;;;;;;;;;;6.58;59.66;100805.72;3145780;28;19982;-65
2022/03/28 02:44:36;;;;;;;;;;;;;;;6.54;60.13;100804.91;3150409;28;19931;-65
2022/03/28 02:46:08;;;;;;;;;;;;;;;6.54;59.68;100809.22;3146325;28;20272;-65
2022/03/28 02:47:40;;;;;;;;;;;;;;;6.52;60.05;100814.41;3147189;28;20366;-65
2022/03/28 02:49:10;;;;;;;;;;;;;;;6.50;59.96;100813.56;3146259;28;20325;-65
2022/03/28 02:50:42;;;;;;;;;;;;;;;6.50;59.93;100817.88;3146119;28;19924;-65
2022/03/28 02:52:13;;;;;;;;;;;;;;;6.50;60.02;100813.56;3149116;28;19924;-66
2022/03/28 02:53:46;;;;;;;;;;;;;;;6.47;61.26;100816.19;3145904;28;19929;-65
2022/03/28 02:55:18;;;;;;;;;;;;;;;6.40;61.47;100814.56;3148872;28;19924;-65
2022/03/28 02:56:50;;;;;;;;;;;;;;;6.37;61.42;100818.03;3149289;28;19924;-65
2022/03/28 02:58:21;;;;;;;;;;;;;;;6.33;61.77;100812.91;3146543;28;19932;-65
2022/03/28 02:59:53;;;;;;;;;;;;;;;6.32;61.42;100813.78;3145960;28;19924;-65
2022/03/28 03:01:23;;;;;;;;;;;;;;;6.33;61.56;100820.66;3146707;28;20423;-66
2022/03/28 03:02:55;;;;;;;;;;;;;;;6.31;61.29;100817.25;3145654;28;20027;-65
2022/03/28 03:04:27;;;;;;;;;;;;;;;6.31;61.65;100815.53;3144127;28;20401;-66
2022/03/28 03:05:59;;;;;;;;;;;;;;;6.29;62.33;100816.41;3148368;28;19928;-65
2022/03/28 03:07:30;;;;;;;;;;;;;;;6.24;63.02;100818.19;3145926;28;19928;-65
2022/03/28 03:09:04;;;;;;;;;;;;;;;6.21;63.05;100821.69;3150922;28;19924;-66
2022/03/28 03:10:36;;;;;;;;;;;;;;;6.20;62.63;100822.53;3144607;28;20394;-66
2022/03/28 03:12:08;;;;;;;;;;;;;;;6.20;62.47;100824.28;3147211;28;20394;-66
2022/03/28 03:13:40;;;;;;;;;;;;;;;6.22;62.54;100830.28;3145788;28;19928;-66
2022/03/28 03:15:11;;;;;;;;;;;;;;;6.20;62.85;100826.84;3149140;28;20016;-66
2022/03/28 03:16:43;;;;;;;;;;;;;;;6.21;62.47;100831.16;3145510;28;19985;-65
2022/03/28 03:18:15;;;;;;;;;;;;;;;6.21;62.45;100826.84;3148488;28;20366;-66
2022/03/28 03:19:46;;;;;;;;;;;;;;;6.23;62.43;100834.59;3145656;28;19994;-65
2022/03/28 03:21:18;;;;;;;;;;;;;;;6.22;62.67;100836.31;3146207;28;19947;-65
2022/03/28 03:22:49;;;;;;;;;;;;;;;6.22;63.06;100838.06;3146784;28;20314;-65
2022/03/28 03:24:22;;;;;;;;;;;;;;;6.20;63.05;100834.63;3145607;28;19928;-65
2022/03/28 03:25:54;;;;;;;;;;;;;;;6.18;63.82;100838.94;3146812;28;19925;-65
2022/03/28 03:27:25;;;;;;;;;;;;;;;6.19;63.14;100843.25;3145733;28;20390;-66
2022/03/28 03:28:58;;;;;;;;;;;;;;;6.19;63.13;100845.84;3151782;28;20068;-66
2022/03/28 03:30:29;;;;;;;;;;;;;;;6.20;63.36;100837.22;3145842;28;19925;-65
2022/03/28 03:32:03;;;;;;;;;;;;;;;6.19;63.18;100843.25;3140383;28;20373;-66
2022/03/28 03:33:34;;;;;;;;;;;;;;;6.20;63.10;100850.13;3145589;28;19925;-66
2022/03/28 03:35:07;;;;;;;;;;;;;;;6.19;63.64;100844.09;3147601;28;19928;-66
2022/03/28 03:36:38;;;;;;;;;;;;;;;6.17;63.71;100856.19;3147790;28;20012;-66
2022/03/28 03:38:10;;;;;;;;;;;;;;;6.13;63.59;100852.78;3145627;28;20603;-66
2022/03/28 03:39:43;;;;;;;;;;;;;;;6.13;63.96;100855.38;3146220;28;19929;-66
2022/03/28 03:41:15;;;;;;;;;;;;;;;6.13;63.74;100854.53;3145649;28;20644;-66
2022/03/28 03:42:46;;;;;;;;;;;;;;;6.11;63.80;100851.09;3146885;28;19924;-65
2022/03/28 03:44:18;;;;;;;;;;;;;;;6.11;63.78;100856.25;3141292;28;19924;-65
2022/03/28 03:45:50;;;;;;;;;;;;;;;6.09;64.20;100858.88;3147344;28;19925;-66
2022/03/28 03:47:21;;;;;;;;;;;;;;;6.08;63.77;100856.28;3145431;28;20057;-66
2022/03/28 03:48:53;;;;;;;;;;;;;;;6.08;63.88;100867.47;3146073;28;20027;-65
2022/03/28 03:50:24;;;;;;;;;;;;;;;6.07;64.07;100865.78;3145429;28;19925;-66
2022/03/28 03:51:56;;;;;;;;;;;;;;;6.06;63.98;100864.06;3145928;28;20393;-66
2022/03/28 03:53:27;;;;;;;;;;;;;;;6.05;63.93;100864.94;3144600;28;20368;-66
2022/03/28 03:55:00;;;;;;;;;;;;;;;6.04;64.58;100865.81;3150144;28;19977;-66
2022/03/28 03:56:32;;;;;;;;;;;;;;;6.02;64.68;100871.88;3150631;28;19936;-67
2022/03/28 03:58:02;;;;;;;;;;;;;;;6.01;64.28;100870.16;3145028;28;19993;-65
2022/03/28 03:59:34;;;;;;;;;;;;;;;5.98;64.43;100876.22;3150141;28;20489;-65
2022/03/28 04:01:08;;;;;;;;;;;;;;;5.98;64.48;100873.63;3144855;28;20373;-65
2022/03/28 04:02:40;;;;;;;;;;;;;;;5.99;64.43;100877.06;3144560;28;19928;-66
2022/03/28 04:04:12;;;;;;;;;;;;;;;5.97;64.38;100874.47;3144491;28;19925;-66
2022/03/28 04:05:44;;;;;;;;;;;;;;;5.97;64.57;100887.41;3148082;28;20276;-66
2022/03/28 04:07:16;;;;;;;;;;;;;;;5.97;64.51;100890.00;3144775;28;19951;-66
2022/03/28 04:08:47;;;;;;;;;;;;;;;5.97;64.32;100889.13;3146246;28;19936;-65
2022/03/28 04:10:19;;;;;;;;;;;;;;;5.97;64.24;100886.56;3146540;28;19928;-65
2022/03/28 04:11:51;;;;;;;;;;;;;;;5.97;64.47;100891.72;3145079;28;19928;-66
2022/03/28 04:13:22;;;;;;;;;;;;;;;5.97;64.51;100895.16;3146729;28;19993;-65
2022/03/28 04:14:58;;;;;;;;;;;;;;;5.97;64.49;100892.56;3145072;28;20092;-66
2022/03/28 04:16:30;;;;;;;;;;;;;;;5.96;64.51;100903.81;3145726;28;19994;-66
2022/03/28 04:18:00;;;;;;;;;;;;;;;5.96;64.83;100903.81;3145360;28;19924;-66
2022/03/28 04:19:32;;;;;;;;;;;;;;;5.96;64.70;100900.38;3150648;28;20089;-66
2022/03/28 04:21:04;;;;;;;;;;;;;;;5.96;64.78;100908.97;3144472;28;19971;-66
2022/03/28 04:22:35;;;;;;;;;;;;;;;5.97;64.68;100902.91;3147416;28;19928;-66
2022/03/28 04:24:07;;;;;;;;;;;;;;;5.99;64.90;100906.34;3146835;28;19931;-66
2022/03/28 04:25:40;;;;;;;;;;;;;;;6.01;64.65;100908.94;3144360;28;20005;-65
2022/03/28 04:27:12;;;;;;;;;;;;;;;6.03;64.55;100908.03;3147273;28;19925;-66
2022/03/28 04:28:43;;;;;;;;;;;;;;;6.07;64.32;100914.91;3147941;28;19924;-67
2022/03/28 04:30:15;;;;;;;;;;;;;;;6.10;64.25;100917.47;3148263;28;19929;-66
2022/03/28 04:31:46;;;;;;;;;;;;;;;6.12;64.20;100920.91;3144106;28;19932;-67
2022/03/28 04:33:19;;;;;;;;;;;;;;;6.14;64.32;100919.16;3145927;28;19925;-67
2022/03/28 04:34:52;;;;;;;;;;;;;;;6.18;64.23;100916.53;3144495;28;20320;-67
2022/03/28 04:36:24;;;;;;;;;;;;;;;6.21;64.13;100919.09;3145227;28;19971;-67
2022/03/28 04:37:56;;;;;;;;;;;;;;;6.24;64.03;100922.53;3144723;28;19928;-66
2022/03/28 04:39:28;;;;;;;;;;;;;;;6.29;63.84;100925.06;3145201;28;19932;-67
2022/03/28 04:41:01;;;;;;;;;;;;;;;6.33;63.96;100929.31;3144883;28;19924;-66
2022/03/28 04:42:34;;;;;;;;;;;;;;;6.35;63.84;100930.16;3144571;28;19968;-67
2022/03/28 04:44:10;;;;;;;;;;;;;;;6.38;63.98;100922.38;3144928;28;20438;-66
2022/03/28 04:45:41;;;;;;;;;;;;;;;6.42;63.89;100929.25;3143730;28;19941;-67
2022/03/28 04:47:13;;;;;;;;;;;;;;;6.44;63.83;100926.63;3145380;28;19932;-67
2022/03/28 04:48:47;;;;;;;;;;;;;;;6.48;63.66;100931.78;3144548;28;19924;-66
2022/03/28 04:50:18;;;;;;;;;;;;;;;6.50;63.75;100936.91;3145163;28;19936;-67
2022/03/28 04:51:50;;;;;;;;;;;;;;;6.52;63.46;100932.59;3144567;28;19952;-66
2022/03/28 04:53:22;;;;;;;;;;;;;;;6.55;63.60;100940.31;3148771;28;19932;-67
2022/03/28 04:54:54;;;;;;;;;;;;;;;6.57;63.68;100936.84;3144485;28;19979;-65
2022/03/28 04:56:27;;;;;;;;;;;;;;;6.62;63.43;100939.38;3148072;28;19928;-65
2022/03/28 04:57:59;;;;;;;;;;;;;;;6.66;63.18;100938.50;3138607;28;19982;-67
2022/03/28 04:59:31;;;;;;;;;;;;;;;6.55;63.18;100910.13;3145174;28;20816;-68
2022/03/28 05:01:03;;;;;;;;;;;;;;;6.77;62.90;100935.75;3145034;28;19940;-67
2022/03/28 05:02:35;;;;;;;;;;;;;;;6.81;63.11;100942.63;3144125;28;20352;-67
2022/03/28 05:04:07;;;;;;;;;;;;;;;6.85;62.84;100939.13;3144676;28;20424;-67
2022/03/28 05:05:38;;;;;;;;;;;;;;;6.91;62.61;100939.06;3140901;28;19928;-66
2022/03/28 05:07:10;;;;;;;;;;;;;;;6.97;62.56;100940.72;3145619;28;20465;-70
2022/03/28 05:08:41;;;;;;;;;;;;;;;7.00;62.38;100936.34;3144545;28;20403;-66
2022/03/28 05:10:13;;;;;;;;;;;;;;;6.92;62.33;100917.47;3149218;28;19978;-66
2022/03/28 05:11:46;;;;;;;;;;;;;;;7.13;62.32;100942.25;3145396;28;19925;-66
2022/03/28 05:13:19;;;;;;;;;;;;;;;7.20;62.20;100945.63;3146705;28;19936;-75
2022/03/28 05:14:51;;;;;;;;;;;;;;;7.29;62.08;100946.34;3147128;28;20005;-74
2022/03/28 05:16:22;;;;;;;;;;;;;;;7.37;62.06;100945.41;3144316;28;19969;-74
2022/03/28 05:17:54;;;;;;;;;;;;;;;7.27;61.83;100914.41;3140261;28;19924;-75
2022/03/28 05:19:26;;;;;;;;;;;;;;;7.52;61.66;100945.19;3145128;28;19932;-73
2022/03/28 05:20:57;;;;;;;;;;;;;;;7.58;61.45;100942.50;3148512;28;19928;-75
2022/03/28 05:22:29;;;;;;;;;;;;;;;7.68;61.05;100943.22;3144228;28;20406;-75
2022/03/28 05:24:00;;;;;;;;;;;;;;;7.77;60.95;100940.47;3147360;28;19929;-76
2022/03/28 05:25:32;;;;;;;;;;;;;;;7.86;60.72;100944.66;3146131;28;19931;-76
2022/03/28 05:27:05;;;;;;;;;;;;;;;7.93;60.40;100938.50;3148544;28;19932;-76
2022/03/28 05:28:37;;;;;;;;;;;;;;;8.00;60.15;100945.31;3144484;28;19936;-75
2022/03/28 05:30:09;;;;;;;;;;;;;;;8.06;59.86;100954.72;3145791;28;19924;-73
2022/03/28 05:31:41;;;;;;;;;;;;;;;8.10;59.70;100946.00;3144564;28;19935;-75
2022/03/28 05:33:13;;;;;;;;;;;;;;;8.18;59.49;100951.94;3144890;28;19935;-72
2022/03/28 05:34:44;;;;;;;;;;;;;;;8.24;59.29;100943.19;3151042;28;20314;-73
2022/03/28 05:36:16;;;;;;;;;;;;;;;8.31;59.19;100947.38;3144361;28;19929;-75
2022/03/28 05:37:48;;;;;;;;;;;;;;;8.39;58.80;100959.38;3150113;28;19925;-75
2022/03/28 05:39:20;;;;;;;;;;;;;;;8.48;58.68;100952.31;3144803;28;19928;-75
2022/03/28 05:40:51;;;;;;;;;;;;;;;8.55;58.46;100953.94;3149515;28;20039;-75
2022/03/28 05:42:24;;;;;;;;;;;;;;;8.60;58.04;100955.53;3143593;28;19977;-76
2022/03/28 05:43:58;;;;;;;;;;;;;;;8.69;57.92;100949.31;3145404;28;19928;-77
2022/03/28 05:45:29;;;;;;;;;;;;;;;8.76;57.65;100961.31;3144792;28;19951;-76
2022/03/28 05:47:01;;;;;;;;;;;;;;;8.84;57.37;100962.03;3146240;28;19982;-76
2022/03/28 05:48:33;;;;;;;;;;;;;;;8.93;57.00;100960.94;3145889;28;19989;-76
2022/03/28 05:50:22;;;;;;;;;;;;;;;9.01;56.73;100966.84;3145672;28;19931;-73
2022/03/28 05:51:54;;;;;;;;;;;;;;;9.08;56.62;100964.97;3144349;28;19933;-70
2022/03/28 05:53:25;;;;;;;;;;;;;;;9.17;56.19;100962.22;3144137;28;19981;-70
2022/03/28 05:54:57;;;;;;;;;;;;;;;9.26;56.02;100959.44;3145130;28;20007;-70
2022/03/28 05:56:29;;;;;;;;;;;;;;;9.36;55.87;100959.22;3144680;28;19927;-70
2022/03/28 05:58:02;;;;;;;;;;;;;;;9.48;55.54;100956.34;3145232;28;19958;-72
2022/03/28 05:59:33;;;;;;;;;;;;;;;9.67;54.99;100960.28;3144309;28;19967;-66
2022/03/28 06:01:05;;;;;;;;;;;;;;;9.80;54.69;100959.06;3149982;28;20001;-66
2022/03/28 06:02:36;;;;;;;;;;;;;;;10.32;54.07;100958.72;3144573;28;19993;-67
2022/03/28 06:04:08;;;;;;;;;;;;;;;11.41;53.61;100958.31;3143546;28;19924;-68
2022/03/28 06:05:40;;;;;;;;;;;;;;;12.83;52.31;100948.38;3143881;28;19948;-72
2022/03/28 06:07:12;;;;;;;;;;;;;;;14.29;49.16;100947.97;3146379;28;19985;-69
2022/03/28 06:08:44;;;;;;;;;;;;;;;15.74;46.46;100951.09;3148995;28;19932;-68
2022/03/28 06:10:16;;;;;;;;;;;;;;;17.08;44.07;100955.66;3147160;28;20331;-68
2022/03/28 06:11:48;;;;;;;;;;;;;;;18.29;41.66;100950.66;3150022;28;20644;-70
2022/03/28 06:13:21;;;;;;;;;;;;;;;19.24;39.30;100943.06;3145157;28;20103;-70
2022/03/28 06:14:53;;;;;;;;;;;;;;;20.28;37.81;100942.53;3143778;28;19928;-69
2022/03/28 06:16:24;;;;;;;;;;;;;;;21.31;36.25;100933.59;3140748;28;19928;-70
2022/03/28 06:17:56;;;;;;;;;;;;;;;22.11;34.13;100944.47;3139049;28;19934;-70
2022/03/28 06:19:28;;;;;;;;;;;;;;;22.97;33.04;100939.72;3138877;28;19967;-69
2022/03/28 06:21:00;;;;;;;;;;;;;;;23.76;31.76;100943.94;3141421;28;20050;-73
2022/03/28 06:22:32;;;;;;;;;;;;;;;24.52;30.40;100946.47;3140109;28;20096;-69
2022/03/28 06:24:04;;;;;;;;;;;;;;;25.17;29.32;100936.41;3141666;28;19999;-70
2022/03/28 06:25:36;;;;;;;;;;;;;;;25.64;27.33;100940.16;3139793;28;20467;-68
2022/03/28 06:27:07;;;;;;;;;;;;;;;25.93;27.24;100926.00;3141973;28;20416;-68
2022/03/28 06:28:40;;;;;;;;;;;;;;;26.46;26.41;100935.31;3140124;28;19928;-72
2022/03/28 06:30:13;;;;;;;;;;;;;;;26.73;25.32;100935.41;3138640;28;19981;-71
2022/03/28 06:31:44;;;;;;;;;;;;;;;27.25;25.06;100940.25;3136832;28;19958;-72
2022/03/28 06:33:16;;;;;;;;;;;;;;;27.75;23.40;100947.81;3136449;28;19935;-70
2022/03/28 06:34:49;;;;;;;;;;;;;;;28.17;23.37;100943.66;3138081;28;19929;-71
2022/03/28 06:36:20;;;;;;;;;;;;;;;28.66;23.02;100942.19;3138248;28;20698;-70
2022/03/28 06:37:53;;;;;;;;;;;;;;;28.99;22.96;100945.88;3137973;28;20438;-70
2022/03/28 06:39:25;;;;;;;;;;;;;;;29.56;22.01;100939.84;3136700;28;20418;-70
2022/03/28 06:40:56;;;;;;;;;;;;;;;29.96;20.98;100919.41;3137071;28;20325;-69
2022/03/28 06:42:28;;;;;;;;;;;;;;;30.40;20.58;100940.56;3137348;28;19939;-70
2022/03/28 06:44:03;;;;;;;;;;;;;;;30.75;20.00;100951.91;3132554;28;19929;-71
2022/03/28 06:45:36;;;;;;;;;;;;;;;31.11;19.47;100943.38;3136683;28;19943;-74
2022/03/28 06:47:08;;;;;;;;;;;;;;;31.39;18.82;100944.63;3138450;28;19928;-74
2022/03/28 06:48:39;;;;;;;;;;;;;;;31.38;18.96;100939.38;3142773;28;19958;-74
2022/03/28 06:50:11;;;;;;;;;;;;;;;31.47;19.04;100941.88;3141248;28;19951;-73
2022/03/28 06:51:43;;;;;;;;;;;;;;;31.67;18.89;100941.38;3137641;28;19935;-73
2022/03/28 06:53:15;;;;;;;;;;;;;;;31.99;18.69;100932.25;3140241;28;19928;-73
2022/03/28 06:54:47;;;;;;;;;;;;;;;32.36;17.90;100935.94;3138428;28;20393;-73
2022/03/28 06:56:22;;;;;;;;;;;;;;;32.69;17.32;100938.31;3137869;28;19928;-75
2022/03/28 06:57:54;;;;;;;;;;;;;;;32.90;17.72;100910.59;3137407;28;20291;-74
2022/03/28 06:59:27;;;;;;;;;;;;;;;33.36;17.24;100934.59;3139472;28;20376;-71
2022/03/28 07:00:59;;;;;;;;;;;;;;;33.36;16.64;100919.22;3141600;28;20416;-72
2022/03/28 07:02:30;;;;;;;;;;;;;;;33.14;16.69;100934.56;3131823;28;20149;-72
2022/03/28 07:04:03;;;;;;;;;;;;;;;33.53;16.85;100917.97;3138893;28;19932;-72
2022/03/28 07:05:35;;;;;;;;;;;;;;;33.84;16.35;100924.06;3139825;28;19936;-73
2022/03/28 07:07:08;;;;;;;;;;;;;;;33.95;15.86;100931.66;3137545;28;19929;-67
2022/03/28 07:08:40;;;;;;;;;;;;;;;33.28;15.43;100932.88;3137965;28;19936;-69
2022/03/28 07:10:12;;;;;;;;;;;;;;;32.57;16.46;100928.00;3139987;28;19928;-71
2022/03/28 07:11:45;;;;;;;;;;;;;;;32.69;16.17;100930.22;3140895;28;19940;-73
2022/03/28 07:13:17;;;;;;;;;;;;;;;32.95;16.03;100927.03;3141267;28;19935;-69
2022/03/28 07:14:50;;;;;;;;;;;;;;;32.74;15.74;100927.78;3141661;28;19928;-72
2022/03/28 07:16:22;;;;;;;;;;;;;;;31.98;15.86;100918.97;3140402;28;19986;-78
2022/03/28 07:17:56;;;;;;;;;;;;;;;31.37;16.68;100929.66;3138649;28;19938;-73
2022/03/28 07:19:28;;;;;;;;;;;;;;;31.24;16.61;100931.03;3138720;28;19928;-71
2022/03/28 07:21:06;;;;;;;;;;;;;;;30.69;16.92;100928.41;3140399;28;20111;-77
2022/03/28 07:22:38;;;;;;;;;;;;;;;30.34;17.32;100927.81;3141204;28;19940;-73
2022/03/28 07:24:10;;;;;;;;;;;;;;;30.53;17.23;100926.59;3136853;28;19928;-76
2022/03/28 07:25:44;;;;;;;;;;;;;;;30.60;17.58;100925.72;3140456;28;19986;-75
2022/03/28 07:27:17;;;;;;;;;;;;;;;30.84;17.35;100929.38;3137441;28;20077;-69
2022/03/28 07:28:49;;;;;;;;;;;;;;;30.66;17.37;100926.88;3137571;28;20388;-66
2022/03/28 07:30:27;;;;;;;;;;;;;;;30.46;17.41;100921.06;3136386;28;19928;-66
2022/03/28 07:31:59;;;;;;;;;;;;;;;30.34;18.00;100923.25;3136435;28;19978;-66
2022/03/28 07:33:31;;;;;;;;;;;;;;;29.85;17.85;100925.97;3136079;28;19928;-66
2022/03/28 07:35:03;;;;;;;;;;;;;;;28.80;18.55;100924.66;3135592;28;19929;-73
2022/03/28 07:36:35;;;;;;;;;;;;;;;28.07;19.00;100925.00;3136748;28;20023;-73
2022/03/28 07:38:08;;;;;;;;;;;;;;;26.92;19.93;100929.16;3138798;28;20034;-73
2022/03/28 07:39:40;;;;;;;;;;;;;;;26.30;20.45;100927.94;3140670;28;19928;-75
2022/03/28 07:41:12;;;;;;;;;;;;;;;25.92;21.10;100924.31;3137205;28;19960;-75
2022/03/28 07:42:46;;;;;;;;;;;;;;;25.42;21.59;100924.41;3141259;28;19928;-71
2022/03/28 07:44:18;;;;;;;;;;;;;;;24.48;22.15;100915.75;3136018;28;19929;-69
2022/03/28 07:45:54;;;;;;;;;;;;;;;23.74;22.81;100916.63;3139836;28;19928;-75
2022/03/28 07:47:26;;;;;;;;;;;;;;;23.57;23.25;100918.00;3136710;28;20005;-76
2022/03/28 07:48:58;;;;;;;;;;;;;;;23.61;23.54;100922.09;3139477;28;20403;-73
2022/03/28 07:50:30;;;;;;;;;;;;;;;23.69;23.66;100913.47;3135154;28;19929;-75
2022/03/28 07:52:32;;;;;;;;;;;;;;;23.79;23.45;100918.91;3138390;28;19936;-80
2022/03/28 07:54:04;;;;;;;;;;;;;;;23.89;23.34;100918.97;3133374;28;19986;-78
2022/03/28 07:55:37;;;;;;;;;;;;;;;23.86;23.54;100913.91;3138636;28;20378;-77
2022/03/28 07:57:09;;;;;;;;;;;;;;;23.73;23.57;100908.78;3136031;28;20431;-77
2022/03/28 07:58:41;;;;;;;;;;;;;;;23.64;23.48;100913.00;3138311;28;20080;-76
2022/03/28 08:00:15;;;;;;;;;;;;;;;23.54;23.68;100909.41;3136260;28;19935;-76